sensor_id;sensor_type;location;lat;lon;timestamp;P1;durP1;ratioP1;P2;durP2;ratioP2
69034;SDS011;56091;55.756;37.412;2023-07-09T00:04:50;19.45;;;8.35;;
69034;SDS011;56091;55.756;37.412;2023-07-09T00:09:53;15.03;;;7.63;;
69034;SDS011;56091;55.756;37.412;2023-07-09T00:14:54;14.82;;;7.95;;
69034;SDS011;56091;55.756;37.412;2023-07-09T00:19:57;17.73;;;7.97;;
69034;SDS011;56091;55.756;37.412;2023-07-09T00:25:01;18.60;;;8.02;;
69034;SDS011;56091;55.756;37.412;2023-07-09T00:30:07;17.73;;;7.80;;
69034;SDS011;56091;55.756;37.412;2023-07-09T00:35:17;15.38;;;7.47;;
69034;SDS011;56091;55.756;37.412;2023-07-09T00:40:22;14.73;;;7.43;;
69034;SDS011;56091;55.756;37.412;2023-07-09T00:45:24;16.70;;;7.88;;
69034;SDS011;56091;55.756;37.412;2023-07-09T00:50:41;14.73;;;7.80;;
69034;SDS011;56091;55.756;37.412;2023-07-09T01:01:41;18.50;;;8.97;;
69034;SDS011;56091;55.756;37.412;2023-07-09T01:06:44;19.30;;;8.50;;
69034;SDS011;56091;55.756;37.412;2023-07-09T01:11:49;20.20;;;8.60;;
69034;SDS011;56091;55.756;37.412;2023-07-09T01:16:55;15.77;;;9.27;;
69034;SDS011;56091;55.756;37.412;2023-07-09T01:22:04;17.20;;;8.80;;
69034;SDS011;56091;55.756;37.412;2023-07-09T01:27:05;17.98;;;9.15;;
69034;SDS011;56091;55.756;37.412;2023-07-09T01:32:07;18.43;;;9.03;;
69034;SDS011;56091;55.756;37.412;2023-07-09T01:37:08;18.45;;;9.43;;
69034;SDS011;56091;55.756;37.412;2023-07-09T01:42:09;20.90;;;9.50;;
69034;SDS011;56091;55.756;37.412;2023-07-09T01:47:13;18.95;;;9.27;;
69034;SDS011;56091;55.756;37.412;2023-07-09T01:52:14;21.23;;;9.37;;
69034;SDS011;56091;55.756;37.412;2023-07-09T01:57:20;19.33;;;9.43;;
69034;SDS011;56091;55.756;37.412;2023-07-09T02:02:23;24.55;;;8.85;;
69034;SDS011;56091;55.756;37.412;2023-07-09T02:07:25;17.40;;;9.77;;
69034;SDS011;56091;55.756;37.412;2023-07-09T02:12:28;16.98;;;9.70;;
69034;SDS011;56091;55.756;37.412;2023-07-09T02:17:30;20.40;;;10.33;;
69034;SDS011;56091;55.756;37.412;2023-07-09T02:22:31;16.10;;;8.90;;
69034;SDS011;56091;55.756;37.412;2023-07-09T02:27:33;20.43;;;9.43;;
69034;SDS011;56091;55.756;37.412;2023-07-09T02:32:36;20.02;;;8.98;;
69034;SDS011;56091;55.756;37.412;2023-07-09T02:37:38;19.17;;;10.20;;
69034;SDS011;56091;55.756;37.412;2023-07-09T02:42:39;17.88;;;9.00;;
69034;SDS011;56091;55.756;37.412;2023-07-09T02:47:40;18.33;;;10.07;;
69034;SDS011;56091;55.756;37.412;2023-07-09T02:52:41;16.80;;;9.15;;
69034;SDS011;56091;55.756;37.412;2023-07-09T02:57:43;19.80;;;10.20;;
69034;SDS011;56091;55.756;37.412;2023-07-09T03:02:44;18.50;;;9.35;;
69034;SDS011;56091;55.756;37.412;2023-07-09T03:07:44;16.97;;;8.93;;
69034;SDS011;56091;55.756;37.412;2023-07-09T03:12:45;17.90;;;9.37;;
69034;SDS011;56091;55.756;37.412;2023-07-09T03:17:46;16.70;;;9.25;;
69034;SDS011;56091;55.756;37.412;2023-07-09T03:22:47;17.03;;;9.33;;
69034;SDS011;56091;55.756;37.412;2023-07-09T03:27:48;18.45;;;8.93;;
69034;SDS011;56091;55.756;37.412;2023-07-09T03:32:49;17.17;;;8.43;;
69034;SDS011;56091;55.756;37.412;2023-07-09T03:37:50;17.30;;;8.50;;
69034;SDS011;56091;55.756;37.412;2023-07-09T03:42:50;15.50;;;8.50;;
69034;SDS011;56091;55.756;37.412;2023-07-09T03:47:51;15.23;;;8.50;;
69034;SDS011;56091;55.756;37.412;2023-07-09T03:52:52;15.30;;;8.50;;
69034;SDS011;56091;55.756;37.412;2023-07-09T03:57:54;14.77;;;7.82;;
69034;SDS011;56091;55.756;37.412;2023-07-09T04:02:55;14.80;;;7.83;;
69034;SDS011;56091;55.756;37.412;2023-07-09T04:07:59;15.35;;;8.13;;
69034;SDS011;56091;55.756;37.412;2023-07-09T04:13:00;14.73;;;8.20;;
69034;SDS011;56091;55.756;37.412;2023-07-09T04:18:03;17.80;;;8.25;;
69034;SDS011;56091;55.756;37.412;2023-07-09T04:23:05;15.80;;;8.00;;
69034;SDS011;56091;55.756;37.412;2023-07-09T04:28:07;17.63;;;8.32;;
69034;SDS011;56091;55.756;37.412;2023-07-09T04:33:08;17.27;;;8.37;;
69034;SDS011;56091;55.756;37.412;2023-07-09T04:38:12;14.07;;;8.23;;
69034;SDS011;56091;55.756;37.412;2023-07-09T04:43:13;15.13;;;7.53;;
69034;SDS011;56091;55.756;37.412;2023-07-09T04:48:14;15.18;;;8.60;;
69034;SDS011;56091;55.756;37.412;2023-07-09T04:53:15;14.53;;;7.93;;
69034;SDS011;56091;55.756;37.412;2023-07-09T04:58:17;14.43;;;7.63;;
69034;SDS011;56091;55.756;37.412;2023-07-09T05:03:19;14.43;;;7.50;;
69034;SDS011;56091;55.756;37.412;2023-07-09T05:08:20;18.02;;;7.60;;
69034;SDS011;56091;55.756;37.412;2023-07-09T05:13:22;13.20;;;6.80;;
69034;SDS011;56091;55.756;37.412;2023-07-09T05:18:23;16.50;;;6.53;;
69034;SDS011;56091;55.756;37.412;2023-07-09T05:23:24;11.93;;;6.67;;
69034;SDS011;56091;55.756;37.412;2023-07-09T05:28:26;10.90;;;5.57;;
69034;SDS011;56091;55.756;37.412;2023-07-09T05:33:28;11.50;;;5.07;;
69034;SDS011;56091;55.756;37.412;2023-07-09T05:38:29;11.23;;;5.63;;
69034;SDS011;56091;55.756;37.412;2023-07-09T05:43:30;12.63;;;5.40;;
69034;SDS011;56091;55.756;37.412;2023-07-09T05:48:31;11.32;;;5.00;;
69034;SDS011;56091;55.756;37.412;2023-07-09T05:53:33;8.53;;;5.10;;
69034;SDS011;56091;55.756;37.412;2023-07-09T05:58:40;7.80;;;3.65;;
69034;SDS011;56091;55.756;37.412;2023-07-09T06:03:41;9.03;;;3.40;;
69034;SDS011;56091;55.756;37.412;2023-07-09T06:08:43;7.93;;;3.40;;
69034;SDS011;56091;55.756;37.412;2023-07-09T06:13:45;8.87;;;3.60;;
69034;SDS011;56091;55.756;37.412;2023-07-09T06:18:48;8.45;;;3.40;;
69034;SDS011;56091;55.756;37.412;2023-07-09T06:23:49;6.40;;;2.50;;
69034;SDS011;56091;55.756;37.412;2023-07-09T06:28:49;6.90;;;3.00;;
69034;SDS011;56091;55.756;37.412;2023-07-09T06:33:50;7.75;;;3.25;;
69034;SDS011;56091;55.756;37.412;2023-07-09T06:38:51;6.07;;;2.90;;
69034;SDS011;56091;55.756;37.412;2023-07-09T06:43:52;10.95;;;3.67;;
69034;SDS011;56091;55.756;37.412;2023-07-09T06:48:53;10.63;;;3.50;;
69034;SDS011;56091;55.756;37.412;2023-07-09T06:53:54;7.22;;;3.30;;
69034;SDS011;56091;55.756;37.412;2023-07-09T06:58:55;8.50;;;3.33;;
69034;SDS011;56091;55.756;37.412;2023-07-09T07:03:56;7.15;;;3.10;;
69034;SDS011;56091;55.756;37.412;2023-07-09T07:08:57;7.67;;;2.83;;
69034;SDS011;56091;55.756;37.412;2023-07-09T07:13:58;7.05;;;3.50;;
69034;SDS011;56091;55.756;37.412;2023-07-09T07:18:58;7.57;;;3.30;;
69034;SDS011;56091;55.756;37.412;2023-07-09T07:23:59;7.53;;;3.33;;
69034;SDS011;56091;55.756;37.412;2023-07-09T07:29:00;8.87;;;3.00;;
69034;SDS011;56091;55.756;37.412;2023-07-09T07:34:01;6.57;;;3.00;;
69034;SDS011;56091;55.756;37.412;2023-07-09T07:39:02;7.10;;;3.17;;
69034;SDS011;56091;55.756;37.412;2023-07-09T07:44:03;8.33;;;3.80;;
69034;SDS011;56091;55.756;37.412;2023-07-09T07:49:04;7.47;;;3.20;;
69034;SDS011;56091;55.756;37.412;2023-07-09T07:54:05;6.43;;;3.27;;
69034;SDS011;56091;55.756;37.412;2023-07-09T07:59:06;7.70;;;3.15;;
69034;SDS011;56091;55.756;37.412;2023-07-09T08:04:07;6.80;;;2.90;;
69034;SDS011;56091;55.756;37.412;2023-07-09T08:09:08;8.45;;;3.20;;
69034;SDS011;56091;55.756;37.412;2023-07-09T08:14:09;9.00;;;3.00;;
69034;SDS011;56091;55.756;37.412;2023-07-09T08:19:11;7.57;;;3.28;;
69034;SDS011;56091;55.756;37.412;2023-07-09T08:24:12;6.70;;;2.90;;
69034;SDS011;56091;55.756;37.412;2023-07-09T08:29:14;8.23;;;3.28;;
69034;SDS011;56091;55.756;37.412;2023-07-09T08:34:15;6.57;;;3.03;;
69034;SDS011;56091;55.756;37.412;2023-07-09T08:39:16;8.77;;;2.85;;
69034;SDS011;56091;55.756;37.412;2023-07-09T08:44:25;8.27;;;3.10;;
69034;SDS011;56091;55.756;37.412;2023-07-09T08:49:47;7.82;;;3.20;;
69034;SDS011;56091;55.756;37.412;2023-07-09T08:55:03;6.93;;;2.90;;
69034;SDS011;56091;55.756;37.412;2023-07-09T09:00:16;5.68;;;2.75;;
69034;SDS011;56091;55.756;37.412;2023-07-09T09:05:22;5.77;;;2.63;;
69034;SDS011;56091;55.756;37.412;2023-07-09T09:10:29;6.95;;;3.08;;
69034;SDS011;56091;55.756;37.412;2023-07-09T09:15:41;5.93;;;2.90;;
69034;SDS011;56091;55.756;37.412;2023-07-09T09:20:54;6.20;;;2.90;;
69034;SDS011;56091;55.756;37.412;2023-07-09T09:26:02;10.70;;;3.43;;
69034;SDS011;56091;55.756;37.412;2023-07-09T09:31:17;6.10;;;3.20;;
69034;SDS011;56091;55.756;37.412;2023-07-09T09:36:23;7.10;;;3.20;;
69034;SDS011;56091;55.756;37.412;2023-07-09T09:41:30;6.82;;;3.00;;
69034;SDS011;56091;55.756;37.412;2023-07-09T09:46:37;5.90;;;2.97;;
69034;SDS011;56091;55.756;37.412;2023-07-09T09:51:43;7.53;;;3.17;;
69034;SDS011;56091;55.756;37.412;2023-07-09T09:56:47;6.20;;;3.27;;
69034;SDS011;56091;55.756;37.412;2023-07-09T10:01:56;6.63;;;3.00;;
69034;SDS011;56091;55.756;37.412;2023-07-09T10:07:03;6.60;;;3.07;;
69034;SDS011;56091;55.756;37.412;2023-07-09T10:33:54;7.32;;;3.30;;
69034;SDS011;56091;55.756;37.412;2023-07-09T10:39:12;6.47;;;3.07;;
69034;SDS011;56091;55.756;37.412;2023-07-09T10:44:20;7.05;;;2.80;;
69034;SDS011;56091;55.756;37.412;2023-07-09T10:49:25;6.63;;;2.60;;
69034;SDS011;56091;55.756;37.412;2023-07-09T11:00:17;7.97;;;2.80;;
69034;SDS011;56091;55.756;37.412;2023-07-09T11:05:20;7.15;;;2.97;;
69034;SDS011;56091;55.756;37.412;2023-07-09T11:10:27;8.00;;;3.13;;
69034;SDS011;56091;55.756;37.412;2023-07-09T11:15:36;5.70;;;3.05;;
69034;SDS011;56091;55.756;37.412;2023-07-09T11:20:45;6.27;;;2.90;;
69034;SDS011;56091;55.756;37.412;2023-07-09T11:26:00;10.32;;;3.33;;
69034;SDS011;56091;55.756;37.412;2023-07-09T11:31:07;7.63;;;3.00;;
69034;SDS011;56091;55.756;37.412;2023-07-09T11:36:24;8.77;;;3.10;;
69034;SDS011;56091;55.756;37.412;2023-07-09T11:52:32;5.20;;;2.70;;
69034;SDS011;56091;55.756;37.412;2023-07-09T11:57:36;6.63;;;2.72;;
69034;SDS011;56091;55.756;37.412;2023-07-09T12:02:37;7.00;;;2.73;;
69034;SDS011;56091;55.756;37.412;2023-07-09T12:07:38;8.05;;;2.83;;
69034;SDS011;56091;55.756;37.412;2023-07-09T12:12:41;6.27;;;3.20;;
69034;SDS011;56091;55.756;37.412;2023-07-09T12:17:42;6.03;;;3.10;;
69034;SDS011;56091;55.756;37.412;2023-07-09T12:22:43;8.10;;;3.80;;
69034;SDS011;56091;55.756;37.412;2023-07-09T12:27:44;7.20;;;4.20;;
69034;SDS011;56091;55.756;37.412;2023-07-09T12:32:48;7.20;;;3.40;;
69034;SDS011;56091;55.756;37.412;2023-07-09T12:37:52;5.68;;;2.95;;
69034;SDS011;56091;55.756;37.412;2023-07-09T12:42:53;11.03;;;3.53;;
69034;SDS011;56091;55.756;37.412;2023-07-09T12:47:56;8.07;;;3.50;;
69034;SDS011;56091;55.756;37.412;2023-07-09T12:53:01;7.03;;;3.10;;
69034;SDS011;56091;55.756;37.412;2023-07-09T12:58:07;14.27;;;3.08;;
69034;SDS011;56091;55.756;37.412;2023-07-09T13:03:14;7.53;;;3.10;;
69034;SDS011;56091;55.756;37.412;2023-07-09T13:08:15;6.27;;;2.87;;
69034;SDS011;56091;55.756;37.412;2023-07-09T13:13:17;7.80;;;4.00;;
69034;SDS011;56091;55.756;37.412;2023-07-09T13:18:20;7.70;;;3.60;;
69034;SDS011;56091;55.756;37.412;2023-07-09T13:23:23;5.95;;;3.03;;
69034;SDS011;56091;55.756;37.412;2023-07-09T13:28:29;7.00;;;3.20;;
69034;SDS011;56091;55.756;37.412;2023-07-09T13:33:31;7.57;;;3.30;;
69034;SDS011;56091;55.756;37.412;2023-07-09T13:38:32;8.43;;;3.20;;
69034;SDS011;56091;55.756;37.412;2023-07-09T13:43:34;6.07;;;2.90;;
69034;SDS011;56091;55.756;37.412;2023-07-09T13:48:36;6.23;;;3.07;;
69034;SDS011;56091;55.756;37.412;2023-07-09T13:53:39;6.90;;;3.38;;
69034;SDS011;56091;55.756;37.412;2023-07-09T13:58:40;7.77;;;3.10;;
69034;SDS011;56091;55.756;37.412;2023-07-09T14:03:44;9.00;;;3.30;;
69034;SDS011;56091;55.756;37.412;2023-07-09T14:08:45;6.80;;;3.63;;
69034;SDS011;56091;55.756;37.412;2023-07-09T14:13:46;7.63;;;4.80;;
69034;SDS011;56091;55.756;37.412;2023-07-09T14:18:49;7.37;;;4.13;;
69034;SDS011;56091;55.756;37.412;2023-07-09T14:23:53;7.10;;;3.05;;
69034;SDS011;56091;55.756;37.412;2023-07-09T14:28:54;6.67;;;2.80;;
69034;SDS011;56091;55.756;37.412;2023-07-09T14:33:59;6.20;;;3.10;;
69034;SDS011;56091;55.756;37.412;2023-07-09T14:39:29;7.83;;;3.40;;
69034;SDS011;56091;55.756;37.412;2023-07-09T14:44:31;8.98;;;3.20;;
69034;SDS011;56091;55.756;37.412;2023-07-09T14:49:33;6.13;;;3.20;;
69034;SDS011;56091;55.756;37.412;2023-07-09T14:54:34;8.02;;;3.83;;
69034;SDS011;56091;55.756;37.412;2023-07-09T14:59:37;6.77;;;3.00;;
69034;SDS011;56091;55.756;37.412;2023-07-09T15:04:39;8.15;;;2.67;;
69034;SDS011;56091;55.756;37.412;2023-07-09T15:09:42;6.57;;;2.90;;
69034;SDS011;56091;55.756;37.412;2023-07-09T15:14:45;9.05;;;2.90;;
69034;SDS011;56091;55.756;37.412;2023-07-09T15:19:46;8.33;;;3.03;;
69034;SDS011;56091;55.756;37.412;2023-07-09T15:24:47;7.15;;;3.00;;
69034;SDS011;56091;55.756;37.412;2023-07-09T15:29:49;6.53;;;3.07;;
69034;SDS011;56091;55.756;37.412;2023-07-09T15:34:50;5.82;;;2.88;;
69034;SDS011;56091;55.756;37.412;2023-07-09T15:39:51;5.97;;;3.03;;
69034;SDS011;56091;55.756;37.412;2023-07-09T15:44:52;10.00;;;3.10;;
69034;SDS011;56091;55.756;37.412;2023-07-09T15:49:52;5.93;;;2.80;;
69034;SDS011;56091;55.756;37.412;2023-07-09T15:54:56;7.82;;;2.78;;
69034;SDS011;56091;55.756;37.412;2023-07-09T15:59:57;7.33;;;3.00;;
69034;SDS011;56091;55.756;37.412;2023-07-09T16:04:58;7.78;;;2.83;;
69034;SDS011;56091;55.756;37.412;2023-07-09T16:09:59;7.97;;;2.50;;
69034;SDS011;56091;55.756;37.412;2023-07-09T16:14:59;6.78;;;3.05;;
69034;SDS011;56091;55.756;37.412;2023-07-09T16:20:00;7.90;;;4.20;;
69034;SDS011;56091;55.756;37.412;2023-07-09T16:25:11;6.77;;;3.50;;
69034;SDS011;56091;55.756;37.412;2023-07-09T16:35:17;6.33;;;2.90;;
69034;SDS011;56091;55.756;37.412;2023-07-09T16:40:21;7.97;;;2.70;;
69034;SDS011;56091;55.756;37.412;2023-07-09T16:45:24;7.53;;;3.37;;
69034;SDS011;56091;55.756;37.412;2023-07-09T16:50:28;17.60;;;3.47;;
69034;SDS011;56091;55.756;37.412;2023-07-09T16:55:29;8.03;;;2.90;;
69034;SDS011;56091;55.756;37.412;2023-07-09T17:00:31;7.93;;;2.65;;
69034;SDS011;56091;55.756;37.412;2023-07-09T17:05:35;6.30;;;2.60;;
69034;SDS011;56091;55.756;37.412;2023-07-09T17:10:36;8.35;;;2.53;;
69034;SDS011;56091;55.756;37.412;2023-07-09T17:15:41;9.53;;;2.70;;
69034;SDS011;56091;55.756;37.412;2023-07-09T17:20:42;8.45;;;2.50;;
69034;SDS011;56091;55.756;37.412;2023-07-09T17:25:43;6.57;;;3.00;;
69034;SDS011;56091;55.756;37.412;2023-07-09T17:30:48;7.15;;;2.60;;
69034;SDS011;56091;55.756;37.412;2023-07-09T17:35:50;7.77;;;2.83;;
69034;SDS011;56091;55.756;37.412;2023-07-09T17:40:52;7.60;;;2.90;;
69034;SDS011;56091;55.756;37.412;2023-07-09T17:45:53;7.30;;;2.83;;
69034;SDS011;56091;55.756;37.412;2023-07-09T17:50:58;7.47;;;2.60;;
69034;SDS011;56091;55.756;37.412;2023-07-09T17:55:59;5.50;;;2.27;;
69034;SDS011;56091;55.756;37.412;2023-07-09T18:01:02;7.60;;;2.33;;
69034;SDS011;56091;55.756;37.412;2023-07-09T18:06:03;5.10;;;2.30;;
69034;SDS011;56091;55.756;37.412;2023-07-09T18:11:04;6.82;;;2.17;;
69034;SDS011;56091;55.756;37.412;2023-07-09T18:16:05;5.60;;;2.20;;
69034;SDS011;56091;55.756;37.412;2023-07-09T18:21:08;5.13;;;2.25;;
69034;SDS011;56091;55.756;37.412;2023-07-09T18:26:13;6.77;;;2.33;;
69034;SDS011;56091;55.756;37.412;2023-07-09T18:31:15;9.65;;;2.50;;
69034;SDS011;56091;55.756;37.412;2023-07-09T18:36:16;7.10;;;2.20;;
69034;SDS011;56091;55.756;37.412;2023-07-09T18:41:17;5.60;;;2.10;;
69034;SDS011;56091;55.756;37.412;2023-07-09T18:46:18;7.23;;;2.20;;
69034;SDS011;56091;55.756;37.412;2023-07-09T18:51:22;6.88;;;2.20;;
69034;SDS011;56091;55.756;37.412;2023-07-09T18:56:25;5.30;;;2.50;;
69034;SDS011;56091;55.756;37.412;2023-07-09T19:01:32;7.53;;;2.50;;
69034;SDS011;56091;55.756;37.412;2023-07-09T19:06:33;8.63;;;2.50;;
69034;SDS011;56091;55.756;37.412;2023-07-09T19:11:35;6.25;;;2.17;;
69034;SDS011;56091;55.756;37.412;2023-07-09T19:16:36;5.37;;;2.27;;
69034;SDS011;56091;55.756;37.412;2023-07-09T19:21:37;5.80;;;2.22;;
69034;SDS011;56091;55.756;37.412;2023-07-09T19:26:38;6.83;;;2.70;;
69034;SDS011;56091;55.756;37.412;2023-07-09T19:31:39;6.07;;;2.30;;
69034;SDS011;56091;55.756;37.412;2023-07-09T19:36:42;5.82;;;2.17;;
69034;SDS011;56091;55.756;37.412;2023-07-09T19:41:43;5.80;;;2.10;;
69034;SDS011;56091;55.756;37.412;2023-07-09T19:46:44;6.47;;;2.45;;
69034;SDS011;56091;55.756;37.412;2023-07-09T19:51:45;6.20;;;2.30;;
69034;SDS011;56091;55.756;37.412;2023-07-09T19:56:46;4.90;;;2.08;;
69034;SDS011;56091;55.756;37.412;2023-07-09T20:01:48;7.87;;;2.37;;
69034;SDS011;56091;55.756;37.412;2023-07-09T20:06:50;6.55;;;2.45;;
69034;SDS011;56091;55.756;37.412;2023-07-09T20:11:51;6.53;;;2.30;;
69034;SDS011;56091;55.756;37.412;2023-07-09T20:16:52;7.43;;;2.15;;
69034;SDS011;56091;55.756;37.412;2023-07-09T20:21:53;8.30;;;2.53;;
69034;SDS011;56091;55.756;37.412;2023-07-09T20:26:53;8.27;;;2.37;;
69034;SDS011;56091;55.756;37.412;2023-07-09T20:31:55;6.20;;;2.50;;
69034;SDS011;56091;55.756;37.412;2023-07-09T20:36:57;5.53;;;2.43;;
69034;SDS011;56091;55.756;37.412;2023-07-09T20:41:58;8.23;;;2.70;;
69034;SDS011;56091;55.756;37.412;2023-07-09T20:47:00;7.57;;;2.57;;
69034;SDS011;56091;55.756;37.412;2023-07-09T20:52:02;7.28;;;2.50;;
69034;SDS011;56091;55.756;37.412;2023-07-09T20:57:04;8.20;;;2.70;;
69034;SDS011;56091;55.756;37.412;2023-07-09T21:02:18;12.77;;;2.88;;
69034;SDS011;56091;55.756;37.412;2023-07-09T21:07:24;8.60;;;2.43;;
69034;SDS011;56091;55.756;37.412;2023-07-09T21:12:25;8.27;;;3.28;;
69034;SDS011;56091;55.756;37.412;2023-07-09T21:17:26;6.63;;;2.40;;
69034;SDS011;56091;55.756;37.412;2023-07-09T21:22:33;6.28;;;2.50;;
69034;SDS011;56091;55.756;37.412;2023-07-09T21:27:33;6.67;;;2.67;;
69034;SDS011;56091;55.756;37.412;2023-07-09T21:32:34;5.60;;;2.70;;
69034;SDS011;56091;55.756;37.412;2023-07-09T21:37:35;6.82;;;2.35;;
69034;SDS011;56091;55.756;37.412;2023-07-09T21:42:36;6.47;;;2.60;;
69034;SDS011;56091;55.756;37.412;2023-07-09T21:47:36;6.05;;;2.38;;
69034;SDS011;56091;55.756;37.412;2023-07-09T21:52:40;7.97;;;2.60;;
69034;SDS011;56091;55.756;37.412;2023-07-09T21:57:47;5.38;;;2.70;;
69034;SDS011;56091;55.756;37.412;2023-07-09T22:02:49;6.40;;;2.77;;
69034;SDS011;56091;55.756;37.412;2023-07-09T22:07:51;7.95;;;2.97;;
69034;SDS011;56091;55.756;37.412;2023-07-09T22:12:54;7.57;;;3.10;;
69034;SDS011;56091;55.756;37.412;2023-07-09T22:17:56;6.63;;;3.17;;
69034;SDS011;56091;55.756;37.412;2023-07-09T22:22:57;8.87;;;3.67;;
69034;SDS011;56091;55.756;37.412;2023-07-09T22:28:00;6.47;;;3.33;;
69034;SDS011;56091;55.756;37.412;2023-07-09T22:33:00;8.50;;;3.77;;
69034;SDS011;56091;55.756;37.412;2023-07-09T22:38:01;8.93;;;3.63;;
69034;SDS011;56091;55.756;37.412;2023-07-09T22:43:02;6.87;;;2.83;;
69034;SDS011;56091;55.756;37.412;2023-07-09T22:48:03;7.88;;;3.50;;
69034;SDS011;56091;55.756;37.412;2023-07-09T22:53:08;6.87;;;3.07;;
69034;SDS011;56091;55.756;37.412;2023-07-09T22:58:14;6.22;;;3.00;;
69034;SDS011;56091;55.756;37.412;2023-07-09T23:03:17;8.30;;;3.30;;
69034;SDS011;56091;55.756;37.412;2023-07-09T23:08:25;10.05;;;3.30;;
69034;SDS011;56091;55.756;37.412;2023-07-09T23:13:31;7.37;;;3.43;;
69034;SDS011;56091;55.756;37.412;2023-07-09T23:18:38;7.95;;;3.47;;
69034;SDS011;56091;55.756;37.412;2023-07-09T23:23:39;10.50;;;3.40;;
69034;SDS011;56091;55.756;37.412;2023-07-09T23:28:40;7.93;;;3.57;;
69034;SDS011;56091;55.756;37.412;2023-07-09T23:33:43;7.20;;;4.10;;
69034;SDS011;56091;55.756;37.412;2023-07-09T23:38:44;10.10;;;3.97;;
69034;SDS011;56091;55.756;37.412;2023-07-09T23:43:45;7.90;;;3.58;;
69034;SDS011;56091;55.756;37.412;2023-07-09T23:48:47;7.43;;;4.00;;
69034;SDS011;56091;55.756;37.412;2023-07-09T23:53:48;7.75;;;3.67;;
69034;SDS011;56091;55.756;37.412;2023-07-09T23:58:48;10.97;;;3.93;;
